Time;durP1;ratioP1;P1;durP2;ratioP2;P2;SDS_P1;SDS_P2;PMS_P1;PMS_P2;Temp;Humidity;BMP_temperature;BMP_pressure;BME280_temperature;BME280_humidity;BME280_pressure;Samples;Min_cycle;Max_cycle;Signal;HPM_P1;HPM_P2
2023/06/23 00:01:58;;;;;;;2.63;1.17;;;;;;;;;;4916625;29;20424;-70
2023/06/23 00:04:24;;;;;;;1.13;1.13;;;;;;;;;;4916793;29;20425;-70
2023/06/23 00:06:50;;;;;;;2.60;1.20;;;;;;;;;;4916674;29;20216;-70
2023/06/23 00:09:17;;;;;;;2.07;1.13;;;;;;;;;;4916582;29;20956;-71
2023/06/23 00:11:45;;;;;;;1.40;1.30;;;;;;;;;;4916564;29;20512;-70
2023/06/23 00:14:12;;;;;;;1.07;1.07;;;;;;;;;;4916502;29;20787;-70
2023/06/23 00:16:39;;;;;;;1.23;1.23;;;;;;;;;;4917426;29;20425;-70
2023/06/23 00:19:06;;;;;;;1.13;1.13;;;;;;;;;;4916897;29;20436;-70
2023/06/23 00:21:32;;;;;;;1.13;1.10;;;;;;;;;;4916566;29;20421;-70
2023/06/23 00:23:58;;;;;;;1.03;0.70;;;;;;;;;;4916768;29;20421;-69
2023/06/23 00:26:24;;;;;;;1.00;1.00;;;;;;;;;;4916514;29;20425;-70
2023/06/23 00:28:51;;;;;;;1.30;1.30;;;;;;;;;;4916403;29;20515;-70
2023/06/23 00:31:17;;;;;;;1.47;1.47;;;;;;;;;;4916518;29;20852;-70
2023/06/23 00:33:43;;;;;;;4.73;1.60;;;;;;;;;;4916999;29;20612;-70
2023/06/23 00:36:10;;;;;;;1.40;1.30;;;;;;;;;;4916837;29;20458;-70
2023/06/23 00:38:36;;;;;;;1.40;1.30;;;;;;;;;;4916402;29;20448;-70
2023/06/23 00:41:02;;;;;;;2.10;1.33;;;;;;;;;;4931059;29;20440;-70
2023/06/23 00:43:31;;;;;;;6.93;1.63;;;;;;;;;;4918915;29;20460;-70
2023/06/23 00:46:16;;;;;;;1.90;1.53;;;;;;;;;;4919654;29;20430;-70
2023/06/23 00:48:42;;;;;;;1.30;1.30;;;;;;;;;;4920262;29;20952;-69
2023/06/23 00:51:08;;;;;;;4.10;1.60;;;;;;;;;;4919663;29;20429;-70
2023/06/23 00:53:35;;;;;;;1.50;1.50;;;;;;;;;;4919758;29;20484;-70
2023/06/23 00:56:02;;;;;;;6.27;1.30;;;;;;;;;;4919522;29;20421;-70
2023/06/23 00:58:33;;;;;;;13.63;1.80;;;;;;;;;;4934107;29;20424;-70
2023/06/23 01:01:00;;;;;;;2.63;1.33;;;;;;;;;;4919679;29;20439;-70
2023/06/23 01:03:25;;;;;;;3.23;1.90;;;;;;;;;;4919237;29;20932;-70
2023/06/23 01:05:52;;;;;;;1.17;1.17;;;;;;;;;;4919380;29;20428;-70
2023/06/23 01:08:25;;;;;;;1.37;1.27;;;;;;;;;;4919566;29;20184;-70
2023/06/23 01:11:14;;;;;;;1.40;1.40;;;;;;;;;;4919568;29;20440;-70
2023/06/23 01:13:53;;;;;;;4.20;1.50;;;;;;;;;;4919366;29;20611;-70
2023/06/23 01:16:27;;;;;;;1.97;1.87;;;;;;;;;;4919507;29;20405;-70
2023/06/23 01:18:56;;;;;;;1.40;1.40;;;;;;;;;;4919300;29;20412;-70
2023/06/23 01:21:29;;;;;;;1.30;1.30;;;;;;;;;;4919278;29;20880;-70
2023/06/23 01:24:03;;;;;;;1.87;1.87;;;;;;;;;;4919042;29;20905;-70
2023/06/23 01:26:29;;;;;;;1.77;1.77;;;;;;;;;;4919303;29;20416;-70
2023/06/23 01:29:21;;;;;;;2.37;2.13;;;;;;;;;;4919152;29;20421;-70
2023/06/23 01:32:00;;;;;;;2.40;2.40;;;;;;;;;;4917665;29;20680;-70
2023/06/23 01:34:30;;;;;;;3.13;3.03;;;;;;;;;;4919042;29;20420;-70
2023/06/23 01:37:07;;;;;;;3.00;2.90;;;;;;;;;;4919093;29;20405;-70
2023/06/23 01:39:35;;;;;;;3.27;3.17;;;;;;;;;;4919078;29;20476;-70
2023/06/23 01:42:04;;;;;;;2.80;2.70;;;;;;;;;;4918993;29;20419;-70
2023/06/23 01:44:31;;;;;;;3.13;3.03;;;;;;;;;;4918721;29;20885;-70
2023/06/23 01:46:58;;;;;;;3.47;3.47;;;;;;;;;;4918882;29;20440;-70
2023/06/23 01:49:26;;;;;;;4.50;4.20;;;;;;;;;;4918572;29;20435;-69
2023/06/23 01:51:53;;;;;;;4.87;4.50;;;;;;;;;;4918688;29;20417;-70
2023/06/23 01:54:19;;;;;;;4.37;4.27;;;;;;;;;;4932242;29;20424;-70
2023/06/23 01:56:47;;;;;;;5.00;4.80;;;;;;;;;;4918704;29;20429;-70
2023/06/23 01:59:13;;;;;;;5.20;5.00;;;;;;;;;;4918613;29;20425;-69
2023/06/23 02:01:42;;;;;;;5.70;5.40;;;;;;;;;;4918648;29;20513;-70
2023/06/23 02:04:09;;;;;;;10.83;6.77;;;;;;;;;;4918510;29;20428;-70
2023/06/23 02:06:35;;;;;;;6.50;5.57;;;;;;;;;;4918518;29;20429;-70
2023/06/23 02:09:03;;;;;;;5.63;5.33;;;;;;;;;;4918279;29;20425;-70
2023/06/23 02:11:29;;;;;;;5.67;5.43;;;;;;;;;;4918164;29;20476;-70
2023/06/23 02:13:56;;;;;;;6.40;6.00;;;;;;;;;;4918142;29;20473;-70
2023/06/23 02:16:22;;;;;;;6.50;6.10;;;;;;;;;;4917954;29;20986;-70
2023/06/23 02:18:53;;;;;;;5.43;5.23;;;;;;;;;;4918393;29;20429;-70
2023/06/23 02:21:20;;;;;;;5.33;4.93;;;;;;;;;;4918284;29;20416;-69
2023/06/23 02:23:46;;;;;;;8.47;5.37;;;;;;;;;;4918093;29;20417;-70
2023/06/23 02:26:12;;;;;;;8.50;4.37;;;;;;;;;;4918037;29;20423;-70
2023/06/23 02:28:39;;;;;;;4.93;4.80;;;;;;;;;;4917790;29;20432;-70
2023/06/23 02:31:05;;;;;;;4.50;3.70;;;;;;;;;;4917556;29;20440;-69
2023/06/23 02:33:31;;;;;;;4.30;4.10;;;;;;;;;;4918059;29;20572;-69
2023/06/23 02:35:57;;;;;;;4.40;4.10;;;;;;;;;;4917716;29;20424;-70
2023/06/23 02:38:25;;;;;;;3.30;3.10;;;;;;;;;;4917660;29;20520;-69
2023/06/23 02:40:52;;;;;;;2.20;2.20;;;;;;;;;;4917644;29;20417;-70
2023/06/23 02:43:18;;;;;;;3.60;3.40;;;;;;;;;;4917693;29;20530;-70
2023/06/23 02:45:47;;;;;;;4.97;2.53;;;;;;;;;;4917732;29;20513;-70
2023/06/23 02:48:21;;;;;;;2.50;2.40;;;;;;;;;;4917830;29;20425;-69
2023/06/23 02:50:48;;;;;;;3.00;2.90;;;;;;;;;;4918463;29;20433;-70
2023/06/23 02:53:20;;;;;;;2.40;2.30;;;;;;;;;;4917449;29;20476;-70
2023/06/23 02:55:47;;;;;;;2.70;2.50;;;;;;;;;;4917703;29;20901;-70
2023/06/23 02:58:14;;;;;;;2.87;2.57;;;;;;;;;;4917589;29;20428;-70
2023/06/23 03:00:40;;;;;;;4.57;2.83;;;;;;;;;;4917263;29;20419;-70
2023/06/23 03:03:08;;;;;;;2.73;2.73;;;;;;;;;;4917272;29;20948;-69
2023/06/23 03:05:34;;;;;;;2.60;2.47;;;;;;;;;;4931821;29;20432;-70
2023/06/23 03:08:01;;;;;;;2.73;2.63;;;;;;;;;;4917494;29;20468;-70
2023/06/23 03:10:28;;;;;;;5.33;3.07;;;;;;;;;;4917493;29;20425;-70
2023/06/23 03:12:54;;;;;;;2.87;2.63;;;;;;;;;;4917405;29;20567;-70
2023/06/23 03:15:20;;;;;;;2.60;2.50;;;;;;;;;;4917019;29;20496;-69
2023/06/23 03:17:47;;;;;;;3.80;3.30;;;;;;;;;;4917467;29;20819;-70
2023/06/23 03:20:30;;;;;;;5.70;3.53;;;;;;;;;;4917096;29;20425;-70
2023/06/23 03:23:02;;;;;;;6.97;3.50;;;;;;;;;;4917077;29;20456;-70
2023/06/23 03:25:28;;;;;;;3.53;3.23;;;;;;;;;;4917029;29;20436;-70
2023/06/23 03:27:56;;;;;;;3.30;2.97;;;;;;;;;;4917254;29;20890;-70
2023/06/23 03:30:27;;;;;;;4.10;3.70;;;;;;;;;;4931437;29;20853;-70
2023/06/23 03:32:54;;;;;;;3.47;3.30;;;;;;;;;;4916878;29;20492;-70
2023/06/23 03:35:22;;;;;;;4.80;3.17;;;;;;;;;;4917007;29;20426;-70
2023/06/23 03:37:54;;;;;;;9.10;4.07;;;;;;;;;;4917092;29;20475;-70
2023/06/23 03:40:22;;;;;;;9.33;3.30;;;;;;;;;;4916869;29;20424;-70
2023/06/23 03:42:51;;;;;;;4.23;3.30;;;;;;;;;;4916884;29;20421;-70
2023/06/23 03:45:18;;;;;;;8.43;3.80;;;;;;;;;;4917039;29;20483;-70
2023/06/23 03:47:46;;;;;;;3.80;3.70;;;;;;;;;;4916784;29;20425;-69
2023/06/23 03:50:14;;;;;;;5.70;3.57;;;;;;;;;;4917025;29;20451;-70
2023/06/23 03:52:42;;;;;;;4.67;4.10;;;;;;;;;;4916805;29;20468;-70
2023/06/23 03:55:10;;;;;;;4.30;4.10;;;;;;;;;;4917026;29;20424;-70
2023/06/23 03:57:36;;;;;;;6.10;4.33;;;;;;;;;;4917032;29;20424;-69
2023/06/23 04:00:03;;;;;;;7.67;5.13;;;;;;;;;;4916926;29;20639;-69
2023/06/23 04:02:30;;;;;;;7.43;4.20;;;;;;;;;;4916931;29;20421;-69
2023/06/23 04:04:57;;;;;;;5.77;4.80;;;;;;;;;;4916991;29;20424;-65
2023/06/23 04:07:24;;;;;;;7.40;6.73;;;;;;;;;;4917197;29;20421;-65
2023/06/23 04:09:51;;;;;;;10.30;4.60;;;;;;;;;;4917226;29;20423;-65
2023/06/23 04:12:18;;;;;;;5.33;4.90;;;;;;;;;;4916721;29;20503;-66
2023/06/23 04:14:45;;;;;;;6.80;6.20;;;;;;;;;;4916616;29;20500;-66
2023/06/23 04:17:12;;;;;;;9.73;4.50;;;;;;;;;;4917326;29;20425;-68
2023/06/23 04:19:39;;;;;;;7.60;4.67;;;;;;;;;;4920058;29;21021;-67
2023/06/23 04:22:07;;;;;;;12.20;4.20;;;;;;;;;;4920342;29;20475;-71
2023/06/23 04:24:34;;;;;;;8.23;5.60;;;;;;;;;;4920334;29;20432;-67
2023/06/23 04:27:01;;;;;;;5.37;5.07;;;;;;;;;;4920031;29;20425;-71
2023/06/23 04:29:28;;;;;;;5.70;4.67;;;;;;;;;;4920117;29;20424;-72
2023/06/23 04:31:55;;;;;;;7.40;4.87;;;;;;;;;;4919684;29;20476;-70
2023/06/23 04:34:21;;;;;;;4.47;4.03;;;;;;;;;;4919821;29;20432;-68
2023/06/23 04:36:49;;;;;;;8.57;5.37;;;;;;;;;;4919814;29;20424;-69
2023/06/23 04:39:19;;;;;;;9.80;6.33;;;;;;;;;;4919923;29;20886;-69
2023/06/23 04:41:48;;;;;;;6.60;6.00;;;;;;;;;;4920080;29;20527;-67
2023/06/23 04:44:15;;;;;;;8.30;7.50;;;;;;;;;;4919657;29;20425;-68
2023/06/23 04:46:42;;;;;;;12.33;7.73;;;;;;;;;;4920217;29;20421;-66
2023/06/23 04:49:09;;;;;;;19.20;9.10;;;;;;;;;;4919697;29;20513;-67
2023/06/23 04:51:36;;;;;;;9.33;8.60;;;;;;;;;;4919524;29;20424;-66
2023/06/23 04:54:08;;;;;;;10.80;9.80;;;;;;;;;;4919794;29;20986;-66
2023/06/23 04:56:35;;;;;;;10.53;9.50;;;;;;;;;;4919900;29;20413;-65
2023/06/23 04:59:04;;;;;;;18.73;10.30;;;;;;;;;;4933915;29;20424;-68
2023/06/23 05:01:31;;;;;;;10.63;9.80;;;;;;;;;;4933970;29;20456;-66
2023/06/23 05:03:58;;;;;;;16.40;9.30;;;;;;;;;;4919705;29;20832;-67
2023/06/23 05:06:25;;;;;;;10.77;9.67;;;;;;;;;;4919366;29;20431;-66
2023/06/23 05:08:51;;;;;;;12.50;10.30;;;;;;;;;;4919288;29;20436;-66
2023/06/23 05:11:17;;;;;;;11.00;9.93;;;;;;;;;;4919221;29;20435;-66
2023/06/23 05:13:45;;;;;;;13.77;11.07;;;;;;;;;;4919447;29;20480;-65
2023/06/23 05:16:13;;;;;;;13.60;12.07;;;;;;;;;;4933831;29;20438;-68
2023/06/23 05:18:39;;;;;;;34.73;11.83;;;;;;;;;;4918618;29;20890;-71
2023/06/23 05:21:06;;;;;;;14.70;11.23;;;;;;;;;;4919030;29;20464;-69
2023/06/23 05:23:39;;;;;;;15.50;13.57;;;;;;;;;;4919586;29;20464;-66
2023/06/23 05:26:07;;;;;;;16.73;11.80;;;;;;;;;;4919054;29;20413;-70
2023/06/23 05:28:35;;;;;;;12.80;11.50;;;;;;;;;;4918000;29;20468;-68
2023/06/23 05:31:02;;;;;;;21.87;13.60;;;;;;;;;;4918709;29;20432;-70
2023/06/23 05:33:29;;;;;;;17.03;12.67;;;;;;;;;;4919122;29;20507;-69
2023/06/23 05:35:56;;;;;;;21.83;14.13;;;;;;;;;;4919251;29;20416;-67
2023/06/23 05:38:24;;;;;;;16.17;14.47;;;;;;;;;;4919068;29;20499;-67
2023/06/23 05:40:50;;;;;;;19.73;14.50;;;;;;;;;;4919058;29;20424;-72
2023/06/23 05:43:16;;;;;;;28.47;14.53;;;;;;;;;;4918655;29;20428;-68
2023/06/23 05:45:42;;;;;;;20.30;14.20;;;;;;;;;;4919131;29;20417;-69
2023/06/23 05:48:20;;;;;;;26.80;16.80;;;;;;;;;;4918571;29;20479;-71
2023/06/23 05:50:47;;;;;;;24.90;15.70;;;;;;;;;;4919136;29;20453;-69
2023/06/23 05:53:16;;;;;;;22.33;14.87;;;;;;;;;;4918732;29;20480;-67
2023/06/23 05:55:43;;;;;;;36.07;16.53;;;;;;;;;;4918821;29;20417;-66
2023/06/23 05:58:11;;;;;;;27.73;16.30;;;;;;;;;;4918377;29;20425;-66
2023/06/23 06:00:46;;;;;;;20.70;15.70;;;;;;;;;;4918696;29;20467;-67
2023/06/23 06:03:14;;;;;;;30.80;15.53;;;;;;;;;;4918673;29;20475;-67
2023/06/23 06:05:41;;;;;;;26.07;16.50;;;;;;;;;;4918642;29;20436;-68
2023/06/23 06:08:09;;;;;;;19.03;15.83;;;;;;;;;;4918471;29;20508;-71
2023/06/23 06:10:37;;;;;;;29.67;16.70;;;;;;;;;;4918308;29;20568;-69
2023/06/23 06:13:04;;;;;;;37.93;17.20;;;;;;;;;;4918327;29;20500;-69
2023/06/23 06:15:30;;;;;;;17.30;15.20;;;;;;;;;;4918157;29;20472;-67
2023/06/23 06:17:58;;;;;;;23.60;17.10;;;;;;;;;;4918425;29;20448;-67
2023/06/23 06:20:24;;;;;;;23.10;16.17;;;;;;;;;;4918037;29;20472;-67
2023/06/23 06:22:52;;;;;;;23.97;17.70;;;;;;;;;;4918195;29;20432;-68
2023/06/23 06:25:18;;;;;;;18.37;16.37;;;;;;;;;;4917930;29;20419;-69
2023/06/23 06:27:44;;;;;;;17.63;15.23;;;;;;;;;;4917945;29;20425;-66
2023/06/23 06:30:11;;;;;;;19.20;15.77;;;;;;;;;;4917873;29;20476;-67
2023/06/23 06:32:38;;;;;;;30.07;16.10;;;;;;;;;;4917474;29;20876;-67
2023/06/23 06:35:05;;;;;;;19.17;14.90;;;;;;;;;;4918072;29;20447;-69
2023/06/23 06:37:34;;;;;;;22.20;15.97;;;;;;;;;;4917933;29;20417;-67
2023/06/23 06:40:00;;;;;;;19.70;15.93;;;;;;;;;;4917456;29;20416;-66
2023/06/23 06:42:26;;;;;;;17.13;15.33;;;;;;;;;;4917668;29;20428;-69
2023/06/23 06:44:52;;;;;;;18.60;14.97;;;;;;;;;;4918010;29;20416;-71
2023/06/23 06:47:19;;;;;;;16.03;12.67;;;;;;;;;;4917481;29;20435;-69
2023/06/23 06:49:45;;;;;;;15.93;12.50;;;;;;;;;;4918075;29;20180;-71
2023/06/23 06:52:11;;;;;;;17.83;12.50;;;;;;;;;;4917641;29;20511;-66
2023/06/23 06:54:38;;;;;;;11.97;10.90;;;;;;;;;;4917437;29;20540;-68
2023/06/23 06:57:04;;;;;;;16.53;11.43;;;;;;;;;;4917316;29;20424;-69
2023/06/23 06:59:30;;;;;;;12.40;11.30;;;;;;;;;;4917317;29;20972;-70
2023/06/23 07:01:56;;;;;;;14.03;10.50;;;;;;;;;;4917337;29;20425;-68
2023/06/23 07:04:22;;;;;;;8.33;7.63;;;;;;;;;;4917289;29;20421;-69
2023/06/23 07:06:52;;;;;;;10.23;8.10;;;;;;;;;;4917507;29;20948;-70
2023/06/23 07:09:18;;;;;;;7.93;7.23;;;;;;;;;;4917177;29;20920;-68
2023/06/23 07:11:47;;;;;;;8.63;7.37;;;;;;;;;;4917207;29;20424;-70
2023/06/23 07:14:13;;;;;;;8.13;7.20;;;;;;;;;;4917198;29;20842;-70
2023/06/23 07:16:39;;;;;;;17.13;11.10;;;;;;;;;;4916971;29;20905;-68
2023/06/23 07:19:05;;;;;;;8.57;7.70;;;;;;;;;;4917477;29;20980;-68
2023/06/23 07:21:32;;;;;;;8.57;7.60;;;;;;;;;;4916868;29;20420;-68
2023/06/23 07:23:58;;;;;;;16.27;8.10;;;;;;;;;;4916894;29;20503;-68
2023/06/23 07:26:24;;;;;;;7.23;6.53;;;;;;;;;;4917085;29;20432;-67
2023/06/23 07:28:50;;;;;;;6.27;5.80;;;;;;;;;;4917045;29;20425;-68
2023/06/23 07:31:16;;;;;;;11.37;7.87;;;;;;;;;;4916494;29;20513;-68
2023/06/23 07:33:42;;;;;;;6.63;6.03;;;;;;;;;;4917025;29;20556;-68
2023/06/23 07:36:08;;;;;;;6.80;6.40;;;;;;;;;;4917078;29;20927;-68
2023/06/23 07:38:34;;;;;;;10.33;8.43;;;;;;;;;;4916667;29;20758;-68
2023/06/23 07:41:00;;;;;;;7.20;6.70;;;;;;;;;;4916957;29;20416;-68
2023/06/23 07:43:26;;;;;;;9.97;6.80;;;;;;;;;;4917712;29;20424;-68
2023/06/23 07:45:52;;;;;;;5.83;5.30;;;;;;;;;;4917196;29;20825;-68
2023/06/23 07:48:18;;;;;;;6.07;5.77;;;;;;;;;;4916619;29;20185;-68
2023/06/23 07:50:46;;;;;;;9.27;7.73;;;;;;;;;;4916940;29;20416;-68
2023/06/23 07:53:13;;;;;;;7.43;6.83;;;;;;;;;;4918757;29;20476;-68
2023/06/23 07:55:39;;;;;;;7.17;6.63;;;;;;;;;;4920749;29;20818;-68
2023/06/23 07:58:05;;;;;;;6.77;6.27;;;;;;;;;;4920577;29;20483;-68
2023/06/23 08:00:31;;;;;;;5.73;5.13;;;;;;;;;;4920307;29;20424;-68
2023/06/23 08:02:57;;;;;;;5.60;5.30;;;;;;;;;;4920358;29;20429;-68
2023/06/23 08:05:23;;;;;;;5.07;4.97;;;;;;;;;;4920332;29;20580;-68
2023/06/23 08:07:50;;;;;;;6.30;5.70;;;;;;;;;;4920733;29;20173;-68
2023/06/23 08:10:16;;;;;;;5.60;5.30;;;;;;;;;;4920417;29;20468;-68
2023/06/23 08:12:42;;;;;;;6.23;5.83;;;;;;;;;;4919993;29;20555;-68
2023/06/23 08:15:08;;;;;;;6.03;5.83;;;;;;;;;;4920394;29;20896;-68
2023/06/23 08:17:35;;;;;;;5.23;4.80;;;;;;;;;;4920822;29;20788;-68
2023/06/23 08:20:01;;;;;;;8.60;5.90;;;;;;;;;;4920534;29;20421;-68
2023/06/23 08:22:27;;;;;;;13.63;6.20;;;;;;;;;;4919993;29;20499;-68
2023/06/23 08:24:53;;;;;;;5.27;4.97;;;;;;;;;;4919004;29;20421;-68
2023/06/23 08:27:19;;;;;;;5.37;5.03;;;;;;;;;;4919746;29;20832;-68
2023/06/23 08:29:45;;;;;;;5.80;4.40;;;;;;;;;;4920077;29;20417;-68
2023/06/23 08:32:12;;;;;;;6.17;4.80;;;;;;;;;;4919775;29;20480;-68
2023/06/23 08:34:38;;;;;;;5.23;4.93;;;;;;;;;;4919774;29;20940;-68
2023/06/23 08:37:04;;;;;;;6.27;5.77;;;;;;;;;;4919980;29;20964;-68
2023/06/23 08:39:33;;;;;;;5.60;5.20;;;;;;;;;;4919707;29;20436;-68
2023/06/23 08:41:59;;;;;;;5.63;5.17;;;;;;;;;;4918957;29;20441;-68
2023/06/23 08:44:26;;;;;;;5.67;5.27;;;;;;;;;;4919390;29;20452;-68
2023/06/23 08:47:01;;;;;;;6.93;5.23;;;;;;;;;;4919674;29;20928;-68
2023/06/23 08:49:27;;;;;;;3.73;3.57;;;;;;;;;;4919883;29;20861;-68
2023/06/23 08:51:54;;;;;;;10.97;5.23;;;;;;;;;;4919793;29;20417;-68
2023/06/23 08:54:20;;;;;;;5.33;5.00;;;;;;;;;;4919586;29;20905;-68
2023/06/23 08:56:46;;;;;;;4.73;4.40;;;;;;;;;;4919509;29;20992;-68
2023/06/23 08:59:12;;;;;;;8.60;4.63;;;;;;;;;;4919984;29;20424;-68
2023/06/23 09:01:38;;;;;;;4.80;4.70;;;;;;;;;;4919343;29;20519;-68
2023/06/23 09:04:04;;;;;;;3.93;3.80;;;;;;;;;;4919157;29;20460;-68
2023/06/23 09:06:30;;;;;;;4.53;4.23;;;;;;;;;;4919371;29;20779;-68
2023/06/23 09:08:57;;;;;;;5.20;4.80;;;;;;;;;;4919614;29;20484;-68
2023/06/23 09:11:23;;;;;;;4.23;4.03;;;;;;;;;;4919161;29;20459;-68
2023/06/23 09:13:51;;;;;;;4.57;4.27;;;;;;;;;;4919123;29;20476;-68
2023/06/23 09:16:18;;;;;;;4.37;4.27;;;;;;;;;;4919724;29;20448;-68
2023/06/23 09:18:47;;;;;;;5.17;4.70;;;;;;;;;;4919475;29;20460;-68
2023/06/23 09:21:13;;;;;;;9.50;4.57;;;;;;;;;;4919346;29;20475;-68
2023/06/23 09:23:39;;;;;;;12.00;4.77;;;;;;;;;;4919289;29;20429;-68
2023/06/23 09:26:06;;;;;;;8.13;4.90;;;;;;;;;;4919054;29;20792;-68
2023/06/23 09:28:39;;;;;;;5.40;5.00;;;;;;;;;;4919156;29;20421;-69
2023/06/23 09:31:08;;;;;;;5.53;4.87;;;;;;;;;;4918788;29;20504;-69
2023/06/23 09:33:34;;;;;;;4.00;3.80;;;;;;;;;;4933224;29;20507;-69
2023/06/23 09:36:04;;;;;;;4.50;4.20;;;;;;;;;;4918823;29;20413;-69
2023/06/23 09:38:34;;;;;;;4.97;4.67;;;;;;;;;;4919347;29;20409;-69
2023/06/23 09:41:02;;;;;;;5.07;4.50;;;;;;;;;;4918925;29;20909;-69
2023/06/23 09:43:28;;;;;;;6.43;4.37;;;;;;;;;;4918580;29;20485;-69
2023/06/23 09:45:54;;;;;;;4.37;4.23;;;;;;;;;;4918932;29;20421;-69
2023/06/23 09:48:20;;;;;;;5.07;4.80;;;;;;;;;;4918883;29;20429;-69
2023/06/23 09:50:59;;;;;;;4.27;4.07;;;;;;;;;;4918857;29;20184;-69
2023/06/23 09:53:25;;;;;;;4.80;4.50;;;;;;;;;;4918490;29;20472;-69
2023/06/23 09:55:51;;;;;;;3.43;3.33;;;;;;;;;;4918487;29;20532;-69
2023/06/23 09:58:17;;;;;;;5.33;5.07;;;;;;;;;;4918466;29;20440;-69
2023/06/23 10:00:43;;;;;;;3.73;3.63;;;;;;;;;;4918598;29;20428;-69
2023/06/23 10:03:09;;;;;;;6.00;4.97;;;;;;;;;;4918572;29;20784;-69
2023/06/23 10:05:36;;;;;;;5.40;4.97;;;;;;;;;;4932944;29;20436;-69
2023/06/23 10:08:09;;;;;;;4.23;4.03;;;;;;;;;;4918370;29;20932;-69
2023/06/23 10:10:41;;;;;;;4.57;4.37;;;;;;;;;;4918415;29;20417;-69
2023/06/23 10:13:07;;;;;;;4.57;4.17;;;;;;;;;;4918198;29;20499;-69
2023/06/23 10:15:33;;;;;;;9.27;4.83;;;;;;;;;;4917420;29;20961;-69
2023/06/23 10:17:59;;;;;;;4.13;4.03;;;;;;;;;;4918156;29;20412;-69
2023/06/23 10:20:25;;;;;;;9.33;3.93;;;;;;;;;;4918228;29;20484;-69
2023/06/23 10:22:52;;;;;;;4.20;4.00;;;;;;;;;;4918022;29;20417;-69
2023/06/23 10:25:18;;;;;;;5.27;4.70;;;;;;;;;;4918208;29;20432;-69
2023/06/23 10:27:45;;;;;;;4.33;4.13;;;;;;;;;;4918000;29;20416;-70
2023/06/23 10:30:15;;;;;;;4.57;4.40;;;;;;;;;;4917764;29;20421;-70
2023/06/23 10:32:42;;;;;;;4.50;4.20;;;;;;;;;;4917456;29;20493;-70
2023/06/23 10:35:09;;;;;;;4.33;3.97;;;;;;;;;;4917604;29;20512;-73
2023/06/23 10:37:36;;;;;;;5.30;5.00;;;;;;;;;;4917614;29;20479;-69
2023/06/23 10:40:04;;;;;;;5.20;4.80;;;;;;;;;;4918067;29;20429;-69
2023/06/23 10:42:30;;;;;;;5.20;4.50;;;;;;;;;;4917691;29;20441;-69
2023/06/23 10:44:59;;;;;;;4.70;4.30;;;;;;;;;;4917730;29;20440;-69
2023/06/23 10:47:25;;;;;;;5.10;4.70;;;;;;;;;;4917491;29;20420;-69
2023/06/23 10:49:51;;;;;;;4.43;4.03;;;;;;;;;;4917419;29;20417;-69
2023/06/23 10:52:17;;;;;;;4.53;4.23;;;;;;;;;;4917592;29;20444;-69
2023/06/23 10:54:43;;;;;;;4.33;4.03;;;;;;;;;;4917446;29;20428;-69
2023/06/23 10:57:10;;;;;;;4.33;3.90;;;;;;;;;;4917085;29;20413;-69
2023/06/23 10:59:36;;;;;;;4.50;4.30;;;;;;;;;;4917370;29;20432;-70
2023/06/23 11:02:07;;;;;;;4.60;4.33;;;;;;;;;;4917306;29;20421;-69
2023/06/23 11:04:41;;;;;;;5.33;4.70;;;;;;;;;;4917669;29;20413;-69
2023/06/23 11:07:12;;;;;;;4.77;4.57;;;;;;;;;;4917473;29;20460;-69
2023/06/23 11:09:57;;;;;;;4.60;4.30;;;;;;;;;;4917478;29;20864;-69
2023/06/23 11:12:34;;;;;;;5.27;4.97;;;;;;;;;;4917028;29;20468;-69
2023/06/23 11:15:24;;;;;;;5.90;5.50;;;;;;;;;;4917430;29;20435;-69
2023/06/23 11:17:59;;;;;;;4.33;4.00;;;;;;;;;;4931770;29;20956;-70
2023/06/23 11:20:25;;;;;;;4.73;4.40;;;;;;;;;;4917296;29;20428;-69
2023/06/23 11:23:07;;;;;;;3.80;3.60;;;;;;;;;;4917352;29;20519;-69
2023/06/23 11:25:36;;;;;;;3.90;3.80;;;;;;;;;;4931605;29;20236;-69
2023/06/23 11:28:21;;;;;;;4.33;4.10;;;;;;;;;;4917006;29;20417;-69
2023/06/23 11:30:53;;;;;;;3.80;3.60;;;;;;;;;;4917052;29;20420;-69
2023/06/23 11:33:30;;;;;;;3.60;3.40;;;;;;;;;;4931282;29;20912;-68
2023/06/23 11:35:56;;;;;;;3.17;3.00;;;;;;;;;;4916972;29;20428;-69
2023/06/23 11:38:22;;;;;;;3.40;3.20;;;;;;;;;;4916703;29;20423;-69
2023/06/23 11:40:51;;;;;;;2.20;2.20;;;;;;;;;;4916835;29;20483;-69
2023/06/23 11:43:18;;;;;;;2.57;2.47;;;;;;;;;;4917031;29;20417;-69
2023/06/23 11:45:50;;;;;;;3.03;2.73;;;;;;;;;;4917088;29;20421;-69
2023/06/23 11:48:16;;;;;;;2.33;2.33;;;;;;;;;;4917155;29;20439;-69
2023/06/23 11:50:42;;;;;;;5.07;2.70;;;;;;;;;;4917121;29;20890;-69
2023/06/23 11:53:08;;;;;;;2.53;2.47;;;;;;;;;;4916977;29;20484;-69
2023/06/23 11:55:34;;;;;;;4.33;2.17;;;;;;;;;;4916842;29;20421;-69
2023/06/23 11:58:00;;;;;;;2.90;2.83;;;;;;;;;;4917003;29;20436;-69
2023/06/23 12:00:26;;;;;;;2.17;2.17;;;;;;;;;;4917022;29;20424;-69
2023/06/23 12:02:54;;;;;;;3.00;3.00;;;;;;;;;;4917023;29;20475;-69
2023/06/23 12:05:20;;;;;;;3.93;2.70;;;;;;;;;;4917058;29;20417;-69
2023/06/23 12:07:47;;;;;;;3.53;3.07;;;;;;;;;;4916745;29;20443;-69
2023/06/23 12:10:13;;;;;;;2.40;2.40;;;;;;;;;;4916994;29;20485;-69
2023/06/23 12:12:39;;;;;;;3.10;3.00;;;;;;;;;;4916777;29;20472;-69
2023/06/23 12:15:05;;;;;;;2.50;2.40;;;;;;;;;;4916851;29;20428;-69
2023/06/23 12:17:32;;;;;;;2.20;2.20;;;;;;;;;;4917657;29;20444;-69
2023/06/23 12:19:58;;;;;;;2.03;2.03;;;;;;;;;;4916795;29;20432;-70
2023/06/23 12:22:34;;;;;;;2.20;2.20;;;;;;;;;;4916655;29;20428;-67
2023/06/23 12:25:01;;;;;;;3.57;1.80;;;;;;;;;;4916698;29;20491;-61
2023/06/23 12:27:27;;;;;;;2.43;2.13;;;;;;;;;;4916355;29;20524;-69
2023/06/23 12:29:53;;;;;;;2.00;2.00;;;;;;;;;;4931079;29;20464;-69
2023/06/23 12:32:19;;;;;;;2.40;2.30;;;;;;;;;;4916238;29;20472;-69
2023/06/23 12:34:45;;;;;;;3.07;2.67;;;;;;;;;;4916508;29;20429;-69
2023/06/23 12:37:12;;;;;;;2.70;2.60;;;;;;;;;;4916165;29;20622;-69
2023/06/23 12:39:38;;;;;;;4.23;2.70;;;;;;;;;;4918875;29;20492;-69
2023/06/23 12:42:04;;;;;;;3.23;2.10;;;;;;;;;;4919497;29;20507;-69
2023/06/23 12:44:32;;;;;;;2.10;2.00;;;;;;;;;;4919558;29;20432;-69
2023/06/23 12:46:58;;;;;;;2.33;2.13;;;;;;;;;;4920042;29;20423;-69
2023/06/23 12:49:31;;;;;;;2.27;2.27;;;;;;;;;;4919707;29;20425;-69
2023/06/23 12:51:57;;;;;;;2.27;2.27;;;;;;;;;;4919567;29;20448;-70
2023/06/23 12:54:26;;;;;;;2.17;2.07;;;;;;;;;;4920081;29;20483;-69
2023/06/23 12:56:52;;;;;;;5.77;2.53;;;;;;;;;;4919494;29;20429;-69
2023/06/23 12:59:18;;;;;;;2.00;2.00;;;;;;;;;;4919744;29;20429;-69
2023/06/23 13:01:44;;;;;;;2.20;2.10;;;;;;;;;;4933991;29;20469;-69
2023/06/23 13:04:10;;;;;;;2.10;2.10;;;;;;;;;;4919590;29;20799;-69
2023/06/23 13:06:36;;;;;;;2.43;1.60;;;;;;;;;;4919485;29;20419;-69
2023/06/23 13:09:03;;;;;;;2.93;2.73;;;;;;;;;;4919577;29;20432;-69
2023/06/23 13:11:30;;;;;;;2.20;2.10;;;;;;;;;;4919536;29;20517;-69
2023/06/23 13:13:56;;;;;;;2.03;1.80;;;;;;;;;;4919508;29;20481;-70
2023/06/23 13:16:22;;;;;;;2.80;2.70;;;;;;;;;;4919264;29;20428;-70
2023/06/23 13:21:52;;;;;;;2.90;2.70;;;;;;;;;;4919513;29;20744;-69
2023/06/23 13:24:18;;;;;;;3.53;3.37;;;;;;;;;;4919413;29;20421;-69
2023/06/23 13:26:44;;;;;;;2.93;2.50;;;;;;;;;;4919158;29;20428;-70
2023/06/23 13:29:10;;;;;;;2.50;2.50;;;;;;;;;;4919236;29;20425;-69
2023/06/23 13:31:36;;;;;;;2.60;2.50;;;;;;;;;;4918788;29;20815;-69
2023/06/23 13:34:02;;;;;;;2.67;2.57;;;;;;;;;;4919217;29;20476;-70
2023/06/23 13:36:28;;;;;;;3.03;2.13;;;;;;;;;;4919115;29;20984;-69
2023/06/23 13:38:54;;;;;;;1.93;1.93;;;;;;;;;;4918848;29;20432;-69
2023/06/23 13:41:20;;;;;;;2.93;2.60;;;;;;;;;;4918814;29;20413;-70
2023/06/23 13:43:46;;;;;;;2.07;1.97;;;;;;;;;;4918935;29;20420;-69
2023/06/23 13:46:13;;;;;;;1.93;1.83;;;;;;;;;;4918762;29;20476;-69
2023/06/23 13:48:39;;;;;;;2.93;2.73;;;;;;;;;;4919782;29;20425;-69
2023/06/23 13:51:05;;;;;;;2.50;2.40;;;;;;;;;;4917654;29;20428;-69
2023/06/23 13:53:32;;;;;;;2.53;2.40;;;;;;;;;;4918717;29;20821;-69
2023/06/23 13:55:58;;;;;;;2.20;2.00;;;;;;;;;;4918510;29;20936;-69
2023/06/23 13:58:24;;;;;;;3.20;2.70;;;;;;;;;;4918541;29;20425;-69
2023/06/23 14:00:51;;;;;;;2.87;2.77;;;;;;;;;;4918773;29;20906;-69
2023/06/23 14:03:17;;;;;;;2.20;2.10;;;;;;;;;;4918630;29;20488;-69
2023/06/23 14:05:43;;;;;;;11.30;2.40;;;;;;;;;;4918638;29;20461;-70
2023/06/23 14:08:09;;;;;;;2.00;1.90;;;;;;;;;;4919260;29;20433;-69
2023/06/23 14:10:35;;;;;;;4.53;2.23;;;;;;;;;;4918279;29;20417;-69
2023/06/23 14:13:01;;;;;;;2.40;2.40;;;;;;;;;;4918023;29;20471;-69
2023/06/23 14:15:27;;;;;;;2.10;2.00;;;;;;;;;;4918915;29;20769;-69
2023/06/23 14:17:53;;;;;;;2.00;2.00;;;;;;;;;;4918344;29;20503;-69
2023/06/23 14:20:20;;;;;;;3.10;2.90;;;;;;;;;;4918011;29;20421;-69
2023/06/23 14:22:47;;;;;;;2.10;2.00;;;;;;;;;;4932546;29;20441;-69
2023/06/23 14:25:13;;;;;;;2.63;2.50;;;;;;;;;;4932383;29;20421;-69
2023/06/23 14:27:39;;;;;;;2.10;2.10;;;;;;;;;;4918222;29;20496;-69
2023/06/23 14:30:05;;;;;;;2.30;2.20;;;;;;;;;;4918508;29;20905;-70
2023/06/23 14:32:31;;;;;;;2.00;1.90;;;;;;;;;;4917617;29;20241;-69
2023/06/23 14:34:57;;;;;;;5.37;2.93;;;;;;;;;;4917925;29;20432;-69
2023/06/23 14:37:23;;;;;;;2.97;2.30;;;;;;;;;;4917792;29;20511;-69
2023/06/23 14:39:49;;;;;;;2.10;2.10;;;;;;;;;;4917788;29;20841;-69
2023/06/23 14:42:15;;;;;;;2.77;2.70;;;;;;;;;;4917677;29;20413;-69
2023/06/23 14:44:41;;;;;;;6.30;2.40;;;;;;;;;;4917664;29;20564;-69